METAR Data
IDs: Format: Raw Decoded Include TAF

Data at: 1345 UTC 07 Jul 2020

KGZS 071335Z AUTO 00000KT 10SM SCT015 26/24 A3002 RMK A01
KGZS 071315Z AUTO 00000KT 10SM SCT110 25/23 A3002 RMK A01
KGZS 071255Z AUTO 00000KT 10SM FEW110 25/24 A3002 RMK A01
KGZS 071235Z AUTO 00000KT 10SM FEW002 23/23 A3001 RMK A01
KGZS 071215Z AUTO 00000KT 3SM BR BKN002 23/23 A3001 RMK A01
KGZS 071155Z AUTO 00000KT M1/4SM FG OVC002 22/22 A3000 RMK A01
KGZS 071135Z AUTO 00000KT M1/4SM FG OVC002 22/22 A3000 RMK A01
KGZS 071115Z AUTO 00000KT M1/4SM FG OVC002 21/21 A2999 RMK A01
KGZS 071055Z AUTO 00000KT M1/4SM FG OVC002 21/21 A2999 RMK A01
KGZS 071035Z AUTO 00000KT 1/4SM FG OVC002 21/21 A2998 RMK A01
KGZS 071015Z AUTO 00000KT 1/2SM BR OVC002 21/21 A2998 RMK A01
KGZS 070955Z AUTO 00000KT M1/4SM FG OVC002 21/21 A2998 RMK A01
KGZS 070935Z AUTO 00000KT 1/2SM FG OVC002 21/21 A2998 RMK A01 VIS 1/4V5
KGZS 070915Z AUTO 00000KT 1 1/2SM BR OVC050 21/21 A2998 RMK A01
KGZS 070855Z AUTO 00000KT 1/2SM FG OVC049 21/21 A2997 RMK A01
KGZS 070835Z AUTO 00000KT 1/4SM FG SCT004 OVC048 21/21 A2997 RMK A01
KGZS 070815Z AUTO 00000KT 2SM BR BKN046 21/21 A2997 RMK A01 VIS 1/4V4
KGZS 070755Z AUTO 00000KT 1/4SM FG OVC046 22/21 A2997 RMK A01
KGZS 070735Z AUTO 00000KT 1/4SM FG BKN045 22/22 A2997 RMK A01
KGZS 070715Z AUTO 00000KT 5SM BR FEW047 FEW055 22/21 A2997 RMK A01
KGZS 070655Z AUTO 00000KT 6SM BR FEW047 FEW055 SCT090 22/22 A2997 RMK A01
KGZS 070635Z AUTO 00000KT 6SM BR SCT050 BKN060 OVC090 22/22 A2998 RMK A01
KGZS 070615Z AUTO 00000KT 6SM BR BKN050 OVC060 22/22 A2999 RMK A01
KGZS 070555Z AUTO 00000KT 5SM BR SCT050 OVC060 22/22 A2999 RMK A01
KGZS 070535Z AUTO 00000KT 8SM BKN050 BKN060 BKN070 22/22 A2999 RMK A01
KGZS 070515Z AUTO 00000KT 9SM FEW050 BKN060 OVC070 23/22 A2999 RMK A01
KGZS 070455Z AUTO 00000KT 6SM BR OVC060 23/22 A2999 RMK A01
KGZS 070435Z AUTO 00000KT 6SM BR BKN065 OVC080 23/22 A2999 RMK A01
KGZS 070415Z AUTO 00000KT 10SM SCT070 BKN080 22/22 A2999 RMK A01
KGZS 070355Z AUTO 00000KT 5SM BR CLR 22/22 A2998 RMK A01
KGZS 070335Z AUTO 00000KT 5SM BR CLR 23/22 A2997 RMK A01
KGZS 070315Z AUTO 00000KT 8SM CLR 23/22 A2997 RMK A01
KGZS 070255Z AUTO 00000KT 10SM CLR 23/23 A2998 RMK A01
KGZS 070235Z AUTO 00000KT 9SM CLR 23/23 A2998 RMK A01
KGZS 070215Z AUTO 00000KT 10SM CLR 24/23 A2997 RMK A01
KGZS 070155Z AUTO 00000KT 10SM CLR 24/23 A2997 RMK A01
KGZS 070135Z AUTO 00000KT 10SM CLR 24/23 A2997 RMK A01
KGZS 070115Z AUTO 00000KT 10SM CLR 25/23 A2996 RMK A01
KGZS 070055Z AUTO 00000KT 10SM CLR 26/23 A2995 RMK A01
KGZS 070035Z AUTO 00000KT 10SM CLR 28/23 A2995 RMK A01
KGZS 070015Z AUTO 00000KT 10SM CLR 29/23 A2995 RMK A01
KGZS 062355Z AUTO 00000KT 8SM CLR 30/22 A2995 RMK A01
KGZS 062335Z AUTO 00000KT 10SM CLR 30/22 A2994 RMK A01
KGZS 062315Z AUTO 12005KT 10SM FEW038 30/22 A2995 RMK A01
KGZS 062255Z AUTO VRB03KT 10SM FEW038 30/23 A2996 RMK A01
KGZS 062235Z AUTO 00000KT 10SM CLR 30/22 A2996 RMK A01
KGZS 062215Z AUTO 00000KT 10SM FEW040 SCT047 SCT060 30/23 A2996 RMK A01
KGZS 062155Z AUTO 15003KT 10SM SCT045 SCT050 BKN060 30/22 A2996 RMK A01
KGZS 062135Z AUTO 15003KT 10SM CLR 30/22 A2996 RMK A01
KGZS 062115Z AUTO VRB03KT 10SM CLR 31/23 A2996 RMK A01
KGZS 062055Z AUTO 00000KT 10SM CLR 30/22 A2997 RMK A01
KGZS 062035Z AUTO 00000KT 10SM CLR 30/23 A2997 RMK A01
KGZS 062015Z AUTO 00000KT 10SM FEW050 FEW060 SCT080 30/22 A2997 RMK A01
KGZS 061955Z AUTO 15003KT 10SM FEW040 SCT050 BKN060 29/23 A2998 RMK A01
KGZS 061935Z AUTO 00000KT 9SM SCT035 BKN042 BKN055 29/23 A2999 RMK A01
KGZS 061915Z AUTO 00000KT 10SM SCT036 SCT070 29/24 A2999 RMK A01
KGZS 061855Z AUTO 00000KT 10SM CLR 29/23 A2999 RMK A01
KGZS 061835Z AUTO 00000KT 10SM CLR 29/23 A2999 RMK A01
KGZS 061815Z AUTO 00000KT 10SM CLR 29/23 A3000 RMK A01
KGZS 061755Z AUTO 15004KT 10SM CLR 29/23 A3001 RMK A01
KGZS 061735Z AUTO VRB04KT 10SM CLR 29/23 A3001 RMK A01
KGZS 061715Z AUTO 14006KT 10SM FEW060 29/22 A3002 RMK A01
KGZS 061655Z AUTO 13006KT 10SM SCT060 29/23 A3002 RMK A01
KGZS 061635Z AUTO 16003KT 10SM FEW060 29/23 A3002 RMK A01
KGZS 061615Z AUTO 00000KT 10SM CLR 28/24 A3002 RMK A01
KGZS 061555Z AUTO 00000KT 10SM CLR 28/24 A3002 RMK A01
KGZS 061535Z AUTO 00000KT 10SM CLR 28/24 A3002 RMK A01
KGZS 061515Z AUTO 00000KT 10SM CLR 27/23 A3002 RMK A01
KGZS 061455Z AUTO 00000KT 10SM FEW065 27/24 A3002 RMK A01
KGZS 061435Z AUTO 00000KT 10SM CLR 27/24 A3002 RMK A01
KGZS 061415Z AUTO 00000KT 10SM CLR 26/23 A3002 RMK A01
KGZS 061355Z AUTO 00000KT 10SM CLR 24/23 A3001 RMK A01
KGZS 061335Z AUTO 00000KT 10SM CLR 24/23 A3001 RMK A01
KGZS 061315Z AUTO 00000KT 10SM CLR 24/23 A3001 RMK A01
KGZS 061255Z AUTO 00000KT 10SM FEW075 22/22 A3001 RMK A01
KGZS 061235Z AUTO 00000KT 10SM SCT070 BKN080 22/21 A3001 RMK A01
KGZS 061215Z AUTO 00000KT 10SM SCT070 21/21 A3000 RMK A01
KGZS 061155Z AUTO 00000KT 9SM CLR 20/20 A3000 RMK A01
KGZS 061135Z AUTO 00000KT 6SM BR CLR 20/20 A2999 RMK A01
KGZS 061115Z AUTO 00000KT 3SM BR CLR 20/20 A2998 RMK A01
KGZS 061055Z AUTO 00000KT 2SM BR CLR 20/20 A2998 RMK A01 VIS 1 1/2V5
KGZS 061035Z AUTO 00000KT 4SM BR CLR 20/20 A2997 RMK A01
KGZS 061015Z AUTO 00000KT 5SM BR CLR 20/20 A2996 RMK A01
KGZS 060955Z AUTO 00000KT 8SM CLR 20/20 A2996 RMK A01
KGZS 060935Z AUTO 00000KT 10SM CLR 20/20 A2995 RMK A01
KGZS 060915Z AUTO 00000KT 6SM BR CLR 20/20 A2994 RMK A01
KGZS 060855Z AUTO 00000KT 10SM CLR 20/20 A2994 RMK A01
KGZS 060835Z AUTO 00000KT 10SM CLR 20/20 A2994 RMK A01
KGZS 060815Z AUTO 00000KT 7SM CLR 20/20 A2993 RMK A01
KGZS 060755Z AUTO 00000KT 9SM CLR 20/20 A2993 RMK A01
KGZS 060735Z AUTO 00000KT 7SM FEW060 21/20 A2993 RMK A01
KGZS 060715Z AUTO 00000KT 9SM FEW055 20/20 A2993 RMK A01
KGZS 060655Z AUTO 00000KT 9SM SCT055 21/20 A2994 RMK A01
KGZS 060635Z AUTO 00000KT 9SM SCT055 20/20 A2994 RMK A01
KGZS 060615Z AUTO 00000KT 10SM FEW055 20/20 A2995 RMK A01
KGZS 060555Z AUTO 00000KT 10SM FEW050 FEW060 20/20 A2994 RMK A01
KGZS 060535Z AUTO 00000KT 8SM BKN055 21/20 A2995 RMK A01
KGZS 060515Z AUTO 00000KT 10SM BKN055 21/20 A2995 RMK A01
KGZS 060455Z AUTO 00000KT 10SM FEW050 SCT060 21/20 A2995 RMK A01
KGZS 060435Z AUTO 00000KT 10SM BKN060 21/20 A2995 RMK A01
KGZS 060415Z AUTO 00000KT 10SM BKN060 21/20 A2995 RMK A01
KGZS 060355Z AUTO 00000KT 10SM BKN060 BKN065 21/20 A2996 RMK A01
KGZS 060335Z AUTO 31004KT 10SM FEW047 BKN055 21/20 A2996 RMK A01
KGZS 060315Z AUTO 00000KT 10SM FEW048 FEW060 SCT080 21/20 A2996 RMK A01
KGZS 060255Z AUTO 00000KT 10SM FEW039 SCT050 BKN075 21/20 A2995 RMK A01
KGZS 060235Z AUTO 36005KT 10SM SCT038 BKN046 OVC100 21/20 A2995 RMK A01
KGZS 060215Z AUTO 17004KT 10SM FEW032 SCT060 OVC075 21/20 A2996 RMK A01
KGZS 060155Z AUTO 00000KT 10SM SCT060 BKN080 BKN110 21/20 A2996 RMK A01